sensor_id;sensor_type;location;lat;lon;timestamp;P1;durP1;ratioP1;P2;durP2;ratioP2
23115;SDS011;11727;52.134;5.052;2023-07-29T00:00:42;1.42;;;0.75;;
23115;SDS011;11727;52.134;5.052;2023-07-29T00:03:08;6.50;;;0.82;;
23115;SDS011;11727;52.134;5.052;2023-07-29T00:05:34;2.80;;;1.05;;
23115;SDS011;11727;52.134;5.052;2023-07-29T00:08:00;2.60;;;0.77;;
23115;SDS011;11727;52.134;5.052;2023-07-29T00:10:26;5.70;;;1.15;;
23115;SDS011;11727;52.134;5.052;2023-07-29T00:12:52;2.42;;;0.85;;
23115;SDS011;11727;52.134;5.052;2023-07-29T00:15:17;2.05;;;0.80;;
23115;SDS011;11727;52.134;5.052;2023-07-29T00:17:43;7.45;;;1.25;;
23115;SDS011;11727;52.134;5.052;2023-07-29T00:20:09;2.38;;;0.70;;
23115;SDS011;11727;52.134;5.052;2023-07-29T00:22:35;1.35;;;0.85;;
23115;SDS011;11727;52.134;5.052;2023-07-29T00:25:00;1.60;;;0.60;;
23115;SDS011;11727;52.134;5.052;2023-07-29T00:27:26;3.88;;;1.10;;
23115;SDS011;11727;52.134;5.052;2023-07-29T00:29:52;1.48;;;0.70;;
23115;SDS011;11727;52.134;5.052;2023-07-29T00:32:17;1.38;;;0.73;;
23115;SDS011;11727;52.134;5.052;2023-07-29T00:34:43;2.45;;;0.88;;
23115;SDS011;11727;52.134;5.052;2023-07-29T00:37:09;2.03;;;0.88;;
23115;SDS011;11727;52.134;5.052;2023-07-29T00:39:35;1.38;;;0.80;;
23115;SDS011;11727;52.134;5.052;2023-07-29T00:42:02;4.82;;;1.15;;
23115;SDS011;11727;52.134;5.052;2023-07-29T00:44:28;2.42;;;0.85;;
23115;SDS011;11727;52.134;5.052;2023-07-29T00:46:53;2.75;;;1.10;;
23115;SDS011;11727;52.134;5.052;2023-07-29T00:49:20;4.38;;;1.00;;
23115;SDS011;11727;52.134;5.052;2023-07-29T00:51:46;1.70;;;0.77;;
23115;SDS011;11727;52.134;5.052;2023-07-29T00:54:12;1.67;;;0.90;;
23115;SDS011;11727;52.134;5.052;2023-07-29T00:56:38;3.67;;;1.10;;
23115;SDS011;11727;52.134;5.052;2023-07-29T00:59:04;1.42;;;0.75;;
23115;SDS011;11727;52.134;5.052;2023-07-29T01:01:30;1.48;;;0.80;;
23115;SDS011;11727;52.134;5.052;2023-07-29T01:03:57;1.73;;;1.08;;
23115;SDS011;11727;52.134;5.052;2023-07-29T01:06:40;1.88;;;0.98;;
23115;SDS011;11727;52.134;5.052;2023-07-29T01:09:36;2.53;;;1.10;;
23115;SDS011;11727;52.134;5.052;2023-07-29T01:17:36;2.72;;;1.30;;
23115;SDS011;11727;52.134;5.052;2023-07-29T01:20:12;3.55;;;1.05;;
23115;SDS011;11727;52.134;5.052;2023-07-29T01:22:41;6.47;;;1.67;;
23115;SDS011;11727;52.134;5.052;2023-07-29T01:25:07;6.40;;;1.38;;
23115;SDS011;11727;52.134;5.052;2023-07-29T01:27:33;2.67;;;1.35;;
23115;SDS011;11727;52.134;5.052;2023-07-29T01:29:59;3.45;;;1.58;;
23115;SDS011;11727;52.134;5.052;2023-07-29T01:35:34;7.20;;;1.80;;
23115;SDS011;11727;52.134;5.052;2023-07-29T01:38:14;3.78;;;1.42;;
23115;SDS011;11727;52.134;5.052;2023-07-29T01:40:46;4.38;;;2.15;;
23115;SDS011;11727;52.134;5.052;2023-07-29T01:43:13;4.28;;;1.90;;
23115;SDS011;11727;52.134;5.052;2023-07-29T01:45:40;5.53;;;1.65;;
23115;SDS011;11727;52.134;5.052;2023-07-29T01:48:06;5.90;;;1.52;;
23115;SDS011;11727;52.134;5.052;2023-07-29T01:50:32;3.15;;;1.40;;
23115;SDS011;11727;52.134;5.052;2023-07-29T01:52:58;5.30;;;1.92;;
23115;SDS011;11727;52.134;5.052;2023-07-29T01:55:24;6.13;;;2.38;;
23115;SDS011;11727;52.134;5.052;2023-07-29T01:57:50;3.80;;;1.88;;
23115;SDS011;11727;52.134;5.052;2023-07-29T02:00:16;3.90;;;1.50;;
23115;SDS011;11727;52.134;5.052;2023-07-29T02:02:45;7.25;;;2.08;;
23115;SDS011;11727;52.134;5.052;2023-07-29T02:05:11;6.95;;;2.25;;
23115;SDS011;11727;52.134;5.052;2023-07-29T02:07:37;6.22;;;2.13;;
23115;SDS011;11727;52.134;5.052;2023-07-29T02:10:02;7.10;;;2.05;;
23115;SDS011;11727;52.134;5.052;2023-07-29T02:12:28;5.18;;;1.70;;
23115;SDS011;11727;52.134;5.052;2023-07-29T02:14:54;5.78;;;1.70;;
23115;SDS011;11727;52.134;5.052;2023-07-29T02:17:19;3.55;;;1.75;;
23115;SDS011;11727;52.134;5.052;2023-07-29T02:19:46;7.57;;;2.28;;
23115;SDS011;11727;52.134;5.052;2023-07-29T02:22:16;3.20;;;1.45;;
23115;SDS011;11727;52.134;5.052;2023-07-29T02:24:42;3.97;;;1.60;;
23115;SDS011;11727;52.134;5.052;2023-07-29T02:27:08;5.68;;;1.95;;
23115;SDS011;11727;52.134;5.052;2023-07-29T02:29:34;2.50;;;1.67;;
23115;SDS011;11727;52.134;5.052;2023-07-29T02:31:59;5.45;;;2.00;;
23115;SDS011;11727;52.134;5.052;2023-07-29T02:34:25;8.13;;;2.08;;
23115;SDS011;11727;52.134;5.052;2023-07-29T02:36:51;5.65;;;2.45;;
23115;SDS011;11727;52.134;5.052;2023-07-29T02:39:16;3.22;;;1.45;;
23115;SDS011;11727;52.134;5.052;2023-07-29T02:41:42;4.65;;;2.20;;
23115;SDS011;11727;52.134;5.052;2023-07-29T02:44:08;2.95;;;1.45;;
23115;SDS011;11727;52.134;5.052;2023-07-29T02:46:33;4.68;;;2.10;;
23115;SDS011;11727;52.134;5.052;2023-07-29T02:48:59;5.45;;;1.85;;
23115;SDS011;11727;52.134;5.052;2023-07-29T02:51:24;5.72;;;2.08;;
23115;SDS011;11727;52.134;5.052;2023-07-29T02:53:50;4.07;;;1.42;;
23115;SDS011;11727;52.134;5.052;2023-07-29T02:56:16;3.85;;;1.90;;
23115;SDS011;11727;52.134;5.052;2023-07-29T02:58:41;3.47;;;1.80;;
23115;SDS011;11727;52.134;5.052;2023-07-29T03:01:07;5.45;;;2.15;;
23115;SDS011;11727;52.134;5.052;2023-07-29T03:03:32;4.63;;;1.48;;
23115;SDS011;11727;52.134;5.052;2023-07-29T03:05:59;4.15;;;1.73;;
23115;SDS011;11727;52.134;5.052;2023-07-29T03:08:29;4.68;;;1.83;;
23115;SDS011;11727;52.134;5.052;2023-07-29T03:10:55;5.70;;;2.05;;
23115;SDS011;11727;52.134;5.052;2023-07-29T03:13:21;4.25;;;1.40;;
23115;SDS011;11727;52.134;5.052;2023-07-29T03:15:46;4.15;;;1.77;;
23115;SDS011;11727;52.134;5.052;2023-07-29T03:18:12;3.60;;;1.48;;
23115;SDS011;11727;52.134;5.052;2023-07-29T03:20:37;5.13;;;1.65;;
23115;SDS011;11727;52.134;5.052;2023-07-29T03:23:03;3.90;;;1.35;;
23115;SDS011;11727;52.134;5.052;2023-07-29T03:25:29;3.70;;;1.58;;
23115;SDS011;11727;52.134;5.052;2023-07-29T03:27:55;4.65;;;1.20;;
23115;SDS011;11727;52.134;5.052;2023-07-29T03:30:23;4.63;;;1.20;;
23115;SDS011;11727;52.134;5.052;2023-07-29T03:32:49;2.47;;;1.20;;
23115;SDS011;11727;52.134;5.052;2023-07-29T03:35:14;4.15;;;1.60;;
23115;SDS011;11727;52.134;5.052;2023-07-29T03:37:40;3.85;;;1.58;;
23115;SDS011;11727;52.134;5.052;2023-07-29T03:40:07;3.22;;;1.40;;
23115;SDS011;11727;52.134;5.052;2023-07-29T03:42:34;5.38;;;1.65;;
23115;SDS011;11727;52.134;5.052;2023-07-29T03:45:00;2.78;;;1.38;;
23115;SDS011;11727;52.134;5.052;2023-07-29T03:47:26;3.45;;;1.33;;
23115;SDS011;11727;52.134;5.052;2023-07-29T03:49:52;2.45;;;1.27;;
23115;SDS011;11727;52.134;5.052;2023-07-29T03:52:17;3.53;;;1.30;;
23115;SDS011;11727;52.134;5.052;2023-07-29T03:54:43;4.10;;;1.52;;
23115;SDS011;11727;52.134;5.052;2023-07-29T03:57:09;3.40;;;1.45;;
23115;SDS011;11727;52.134;5.052;2023-07-29T04:02:02;3.15;;;1.48;;
23115;SDS011;11727;52.134;5.052;2023-07-29T04:04:28;4.43;;;1.70;;
23115;SDS011;11727;52.134;5.052;2023-07-29T04:06:53;2.92;;;1.35;;
23115;SDS011;11727;52.134;5.052;2023-07-29T04:09:19;4.63;;;1.58;;
23115;SDS011;11727;52.134;5.052;2023-07-29T04:11:44;3.45;;;1.30;;
23115;SDS011;11727;52.134;5.052;2023-07-29T04:14:10;2.20;;;1.27;;
23115;SDS011;11727;52.134;5.052;2023-07-29T04:16:36;4.07;;;1.55;;
23115;SDS011;11727;52.134;5.052;2023-07-29T04:19:01;4.10;;;1.35;;
23115;SDS011;11727;52.134;5.052;2023-07-29T04:21:27;5.85;;;1.50;;
23115;SDS011;11727;52.134;5.052;2023-07-29T04:23:52;4.75;;;1.55;;
23115;SDS011;11727;52.134;5.052;2023-07-29T04:26:18;3.00;;;1.40;;
23115;SDS011;11727;52.134;5.052;2023-07-29T04:28:44;3.03;;;1.92;;
23115;SDS011;11727;52.134;5.052;2023-07-29T04:31:09;2.33;;;1.30;;
23115;SDS011;11727;52.134;5.052;2023-07-29T04:33:35;3.03;;;1.45;;
23115;SDS011;11727;52.134;5.052;2023-07-29T04:36:00;3.45;;;1.20;;
23115;SDS011;11727;52.134;5.052;2023-07-29T04:38:30;2.75;;;1.60;;
23115;SDS011;11727;52.134;5.052;2023-07-29T04:41:00;3.85;;;1.58;;
23115;SDS011;11727;52.134;5.052;2023-07-29T04:43:27;5.38;;;1.88;;
23115;SDS011;11727;52.134;5.052;2023-07-29T04:45:55;6.95;;;1.65;;
23115;SDS011;11727;52.134;5.052;2023-07-29T04:48:21;2.85;;;1.40;;
23115;SDS011;11727;52.134;5.052;2023-07-29T04:50:47;6.65;;;1.70;;
23115;SDS011;11727;52.134;5.052;2023-07-29T04:53:12;2.42;;;1.30;;
23115;SDS011;11727;52.134;5.052;2023-07-29T04:55:38;3.13;;;1.55;;
23115;SDS011;11727;52.134;5.052;2023-07-29T04:58:05;3.92;;;1.55;;
23115;SDS011;11727;52.134;5.052;2023-07-29T05:00:31;4.82;;;1.70;;
23115;SDS011;11727;52.134;5.052;2023-07-29T05:02:56;5.70;;;2.20;;
23115;SDS011;11727;52.134;5.052;2023-07-29T05:05:22;5.03;;;1.60;;
23115;SDS011;11727;52.134;5.052;2023-07-29T05:07:47;2.88;;;1.50;;
23115;SDS011;11727;52.134;5.052;2023-07-29T05:10:13;4.60;;;2.50;;
23115;SDS011;11727;52.134;5.052;2023-07-29T05:12:38;3.92;;;2.08;;
23115;SDS011;11727;52.134;5.052;2023-07-29T05:15:04;8.25;;;2.28;;
23115;SDS011;11727;52.134;5.052;2023-07-29T05:17:30;4.00;;;1.60;;
23115;SDS011;11727;52.134;5.052;2023-07-29T05:19:56;4.28;;;1.88;;
23115;SDS011;11727;52.134;5.052;2023-07-29T05:22:21;4.68;;;1.85;;
23115;SDS011;11727;52.134;5.052;2023-07-29T05:24:47;5.38;;;2.08;;
23115;SDS011;11727;52.134;5.052;2023-07-29T05:27:13;8.23;;;2.15;;
23115;SDS011;11727;52.134;5.052;2023-07-29T05:29:38;9.18;;;2.38;;
23115;SDS011;11727;52.134;5.052;2023-07-29T05:32:04;3.13;;;1.73;;
23115;SDS011;11727;52.134;5.052;2023-07-29T05:34:30;4.20;;;1.77;;
23115;SDS011;11727;52.134;5.052;2023-07-29T05:36:56;4.45;;;1.67;;
23115;SDS011;11727;52.134;5.052;2023-07-29T05:39:21;5.18;;;2.28;;
23115;SDS011;11727;52.134;5.052;2023-07-29T05:41:47;4.70;;;2.28;;
23115;SDS011;11727;52.134;5.052;2023-07-29T05:44:12;5.78;;;2.42;;
23115;SDS011;11727;52.134;5.052;2023-07-29T05:46:38;4.22;;;2.13;;
23115;SDS011;11727;52.134;5.052;2023-07-29T05:49:03;5.35;;;2.30;;
23115;SDS011;11727;52.134;5.052;2023-07-29T05:51:29;5.45;;;2.22;;
23115;SDS011;11727;52.134;5.052;2023-07-29T05:53:55;4.47;;;1.90;;
23115;SDS011;11727;52.134;5.052;2023-07-29T05:56:20;3.95;;;2.13;;
23115;SDS011;11727;52.134;5.052;2023-07-29T05:58:46;5.07;;;2.55;;
23115;SDS011;11727;52.134;5.052;2023-07-29T06:01:11;7.60;;;2.70;;
23115;SDS011;11727;52.134;5.052;2023-07-29T06:03:37;8.02;;;2.78;;
23115;SDS011;11727;52.134;5.052;2023-07-29T06:06:03;7.50;;;3.00;;
23115;SDS011;11727;52.134;5.052;2023-07-29T06:08:28;9.23;;;3.08;;
23115;SDS011;11727;52.134;5.052;2023-07-29T06:10:54;4.90;;;2.30;;
23115;SDS011;11727;52.134;5.052;2023-07-29T06:13:20;4.50;;;2.60;;
23115;SDS011;11727;52.134;5.052;2023-07-29T06:15:45;10.13;;;3.70;;
23115;SDS011;11727;52.134;5.052;2023-07-29T06:18:11;5.57;;;2.65;;
23115;SDS011;11727;52.134;5.052;2023-07-29T06:20:36;7.85;;;3.35;;
23115;SDS011;11727;52.134;5.052;2023-07-29T06:23:02;7.07;;;2.75;;
23115;SDS011;11727;52.134;5.052;2023-07-29T06:25:28;8.38;;;2.75;;
23115;SDS011;11727;52.134;5.052;2023-07-29T06:27:54;5.35;;;3.00;;
23115;SDS011;11727;52.134;5.052;2023-07-29T06:30:19;6.88;;;3.50;;
23115;SDS011;11727;52.134;5.052;2023-07-29T06:32:45;7.38;;;2.92;;
23115;SDS011;11727;52.134;5.052;2023-07-29T06:35:10;13.50;;;3.40;;
23115;SDS011;11727;52.134;5.052;2023-07-29T06:37:36;6.78;;;3.15;;
23115;SDS011;11727;52.134;5.052;2023-07-29T06:40:02;7.07;;;2.72;;
23115;SDS011;11727;52.134;5.052;2023-07-29T06:42:28;8.95;;;2.88;;
23115;SDS011;11727;52.134;5.052;2023-07-29T06:44:53;8.55;;;3.30;;
23115;SDS011;11727;52.134;5.052;2023-07-29T06:47:19;9.02;;;2.88;;
23115;SDS011;11727;52.134;5.052;2023-07-29T06:49:45;7.65;;;3.53;;
23115;SDS011;11727;52.134;5.052;2023-07-29T06:52:10;5.85;;;3.50;;
23115;SDS011;11727;52.134;5.052;2023-07-29T06:54:36;11.45;;;2.72;;
23115;SDS011;11727;52.134;5.052;2023-07-29T06:57:02;11.55;;;3.65;;
23115;SDS011;11727;52.134;5.052;2023-07-29T06:59:27;6.13;;;3.10;;
23115;SDS011;11727;52.134;5.052;2023-07-29T07:01:53;8.10;;;3.58;;
23115;SDS011;11727;52.134;5.052;2023-07-29T07:04:19;4.80;;;2.42;;
23115;SDS011;11727;52.134;5.052;2023-07-29T07:06:44;6.80;;;2.65;;
23115;SDS011;11727;52.134;5.052;2023-07-29T07:09:10;4.80;;;2.72;;
23115;SDS011;11727;52.134;5.052;2023-07-29T07:11:35;5.47;;;2.63;;
23115;SDS011;11727;52.134;5.052;2023-07-29T07:14:01;3.95;;;2.67;;
23115;SDS011;11727;52.134;5.052;2023-07-29T07:16:27;7.20;;;3.03;;
23115;SDS011;11727;52.134;5.052;2023-07-29T07:18:55;7.85;;;3.17;;
23115;SDS011;11727;52.134;5.052;2023-07-29T07:21:21;9.52;;;3.47;;
23115;SDS011;11727;52.134;5.052;2023-07-29T07:23:48;5.80;;;3.28;;
23115;SDS011;11727;52.134;5.052;2023-07-29T07:26:15;4.82;;;2.90;;
23115;SDS011;11727;52.134;5.052;2023-07-29T07:28:40;8.05;;;3.22;;
23115;SDS011;11727;52.134;5.052;2023-07-29T07:31:06;4.95;;;2.95;;
23115;SDS011;11727;52.134;5.052;2023-07-29T07:33:31;10.55;;;3.25;;
23115;SDS011;11727;52.134;5.052;2023-07-29T07:35:57;6.25;;;2.88;;
23115;SDS011;11727;52.134;5.052;2023-07-29T07:38:23;4.85;;;2.55;;
23115;SDS011;11727;52.134;5.052;2023-07-29T07:40:55;7.35;;;3.00;;
23115;SDS011;11727;52.134;5.052;2023-07-29T07:43:21;8.50;;;3.30;;
23115;SDS011;11727;52.134;5.052;2023-07-29T07:45:48;4.82;;;2.47;;
23115;SDS011;11727;52.134;5.052;2023-07-29T07:48:14;5.35;;;2.85;;
23115;SDS011;11727;52.134;5.052;2023-07-29T07:50:41;7.57;;;3.13;;
23115;SDS011;11727;52.134;5.052;2023-07-29T07:53:07;6.97;;;3.67;;
23115;SDS011;11727;52.134;5.052;2023-07-29T07:55:33;5.32;;;2.88;;
23115;SDS011;11727;52.134;5.052;2023-07-29T07:57:58;3.78;;;2.75;;
23115;SDS011;11727;52.134;5.052;2023-07-29T08:00:24;8.80;;;3.22;;
23115;SDS011;11727;52.134;5.052;2023-07-29T08:02:49;5.47;;;2.63;;
23115;SDS011;11727;52.134;5.052;2023-07-29T08:05:15;5.15;;;2.72;;
23115;SDS011;11727;52.134;5.052;2023-07-29T08:07:40;3.67;;;2.42;;
23115;SDS011;11727;52.134;5.052;2023-07-29T08:10:06;3.80;;;2.03;;
23115;SDS011;11727;52.134;5.052;2023-07-29T08:12:32;3.90;;;2.15;;
23115;SDS011;11727;52.134;5.052;2023-07-29T08:14:58;1.75;;;1.50;;
23115;SDS011;11727;52.134;5.052;2023-07-29T08:17:23;4.32;;;1.80;;
23115;SDS011;11727;52.134;5.052;2023-07-29T08:19:49;4.18;;;1.42;;
23115;SDS011;11727;52.134;5.052;2023-07-29T08:22:14;4.53;;;1.77;;
23115;SDS011;11727;52.134;5.052;2023-07-29T08:24:42;3.47;;;1.38;;
23115;SDS011;11727;52.134;5.052;2023-07-29T08:27:08;2.42;;;1.33;;
23115;SDS011;11727;52.134;5.052;2023-07-29T08:29:33;6.88;;;1.35;;
23115;SDS011;11727;52.134;5.052;2023-07-29T08:31:59;2.83;;;1.30;;
23115;SDS011;11727;52.134;5.052;2023-07-29T08:34:24;3.90;;;1.70;;
23115;SDS011;11727;52.134;5.052;2023-07-29T08:36:50;3.63;;;1.50;;
23115;SDS011;11727;52.134;5.052;2023-07-29T08:39:16;3.17;;;1.58;;
23115;SDS011;11727;52.134;5.052;2023-07-29T08:41:46;2.42;;;1.42;;
23115;SDS011;11727;52.134;5.052;2023-07-29T08:44:20;2.67;;;1.42;;
23115;SDS011;11727;52.134;5.052;2023-07-29T08:46:48;4.20;;;1.45;;
23115;SDS011;11727;52.134;5.052;2023-07-29T08:49:15;5.80;;;1.88;;
23115;SDS011;11727;52.134;5.052;2023-07-29T08:51:47;2.38;;;1.45;;
23115;SDS011;11727;52.134;5.052;2023-07-29T08:54:13;4.55;;;1.60;;
23115;SDS011;11727;52.134;5.052;2023-07-29T08:56:42;3.47;;;1.40;;
23115;SDS011;11727;52.134;5.052;2023-07-29T08:59:08;2.35;;;1.20;;
23115;SDS011;11727;52.134;5.052;2023-07-29T09:01:36;2.55;;;1.70;;
23115;SDS011;11727;52.134;5.052;2023-07-29T09:04:04;4.55;;;1.77;;
23115;SDS011;11727;52.134;5.052;2023-07-29T09:06:33;4.03;;;1.40;;
23115;SDS011;11727;52.134;5.052;2023-07-29T09:09:00;2.85;;;1.60;;
23115;SDS011;11727;52.134;5.052;2023-07-29T09:11:27;5.55;;;2.25;;
23115;SDS011;11727;52.134;5.052;2023-07-29T09:13:53;5.75;;;2.58;;
23115;SDS011;11727;52.134;5.052;2023-07-29T09:16:22;4.20;;;1.77;;
23115;SDS011;11727;52.134;5.052;2023-07-29T09:18:48;3.00;;;1.70;;
23115;SDS011;11727;52.134;5.052;2023-07-29T09:21:17;2.50;;;1.83;;
23115;SDS011;11727;52.134;5.052;2023-07-29T09:23:53;3.33;;;1.80;;
23115;SDS011;11727;52.134;5.052;2023-07-29T09:26:22;8.15;;;1.85;;
23115;SDS011;11727;52.134;5.052;2023-07-29T09:28:53;6.65;;;2.63;;
23115;SDS011;11727;52.134;5.052;2023-07-29T09:31:20;3.40;;;1.83;;
23115;SDS011;11727;52.134;5.052;2023-07-29T09:33:49;3.42;;;1.92;;
23115;SDS011;11727;52.134;5.052;2023-07-29T09:36:21;5.50;;;2.50;;
23115;SDS011;11727;52.134;5.052;2023-07-29T09:38:46;2.63;;;1.65;;
23115;SDS011;11727;52.134;5.052;2023-07-29T09:41:12;4.35;;;2.00;;
23115;SDS011;11727;52.134;5.052;2023-07-29T09:43:40;4.28;;;1.98;;
23115;SDS011;11727;52.134;5.052;2023-07-29T09:46:06;2.75;;;2.00;;
23115;SDS011;11727;52.134;5.052;2023-07-29T09:48:35;1.85;;;1.40;;
23115;SDS011;11727;52.134;5.052;2023-07-29T09:51:14;2.85;;;1.33;;
23115;SDS011;11727;52.134;5.052;2023-07-29T09:53:41;3.42;;;1.50;;
23115;SDS011;11727;52.134;5.052;2023-07-29T09:56:08;3.47;;;1.40;;
23115;SDS011;11727;52.134;5.052;2023-07-29T09:58:34;3.47;;;1.77;;
23115;SDS011;11727;52.134;5.052;2023-07-29T10:01:00;4.85;;;1.60;;
23115;SDS011;11727;52.134;5.052;2023-07-29T10:03:26;2.35;;;1.27;;
23115;SDS011;11727;52.134;5.052;2023-07-29T10:05:53;7.05;;;0.90;;
23115;SDS011;11727;52.134;5.052;2023-07-29T10:08:20;3.63;;;1.50;;
23115;SDS011;11727;52.134;5.052;2023-07-29T10:10:48;6.22;;;1.77;;
23115;SDS011;11727;52.134;5.052;2023-07-29T10:13:15;4.70;;;1.48;;
23115;SDS011;11727;52.134;5.052;2023-07-29T10:15:41;3.63;;;1.58;;
23115;SDS011;11727;52.134;5.052;2023-07-29T10:18:08;3.33;;;1.38;;
23115;SDS011;11727;52.134;5.052;2023-07-29T10:20:34;2.53;;;1.63;;
23115;SDS011;11727;52.134;5.052;2023-07-29T10:23:01;4.22;;;1.52;;
23115;SDS011;11727;52.134;5.052;2023-07-29T10:25:35;2.47;;;1.40;;
23115;SDS011;11727;52.134;5.052;2023-07-29T10:28:08;2.40;;;1.70;;
23115;SDS011;11727;52.134;5.052;2023-07-29T10:30:37;5.93;;;1.85;;
23115;SDS011;11727;52.134;5.052;2023-07-29T10:33:04;5.55;;;1.88;;
23115;SDS011;11727;52.134;5.052;2023-07-29T10:35:34;3.53;;;1.80;;
23115;SDS011;11727;52.134;5.052;2023-07-29T10:38:00;3.03;;;1.67;;
23115;SDS011;11727;52.134;5.052;2023-07-29T10:40:42;3.17;;;1.67;;
23115;SDS011;11727;52.134;5.052;2023-07-29T10:43:13;3.03;;;1.92;;
23115;SDS011;11727;52.134;5.052;2023-07-29T10:45:50;4.80;;;2.45;;
23115;SDS011;11727;52.134;5.052;2023-07-29T10:54:12;3.67;;;2.05;;
23115;SDS011;11727;52.134;5.052;2023-07-29T10:56:42;5.25;;;2.10;;
23115;SDS011;11727;52.134;5.052;2023-07-29T11:01:38;2.60;;;1.40;;
23115;SDS011;11727;52.134;5.052;2023-07-29T11:07:02;2.08;;;1.05;;
23115;SDS011;11727;52.134;5.052;2023-07-29T11:09:58;1.30;;;0.77;;
23115;SDS011;11727;52.134;5.052;2023-07-29T11:15:23;1.02;;;0.50;;
23115;SDS011;11727;52.134;5.052;2023-07-29T11:20:22;1.30;;;0.65;;
23115;SDS011;11727;52.134;5.052;2023-07-29T11:22:49;0.73;;;0.52;;
23115;SDS011;11727;52.134;5.052;2023-07-29T11:25:15;1.73;;;0.70;;
23115;SDS011;11727;52.134;5.052;2023-07-29T11:27:42;2.60;;;0.60;;
23115;SDS011;11727;52.134;5.052;2023-07-29T11:30:09;0.70;;;0.40;;
23115;SDS011;11727;52.134;5.052;2023-07-29T11:32:36;1.27;;;0.57;;
23115;SDS011;11727;52.134;5.052;2023-07-29T11:35:10;3.45;;;0.70;;
23115;SDS011;11727;52.134;5.052;2023-07-29T11:37:36;1.27;;;0.60;;
23115;SDS011;11727;52.134;5.052;2023-07-29T11:40:03;2.35;;;0.57;;
23115;SDS011;11727;52.134;5.052;2023-07-29T11:42:31;3.03;;;0.90;;
23115;SDS011;11727;52.134;5.052;2023-07-29T11:44:58;1.52;;;0.70;;
23115;SDS011;11727;52.134;5.052;2023-07-29T11:47:24;1.17;;;0.80;;
23115;SDS011;11727;52.134;5.052;2023-07-29T11:49:49;1.13;;;0.70;;
23115;SDS011;11727;52.134;5.052;2023-07-29T11:52:15;1.58;;;0.80;;
23115;SDS011;11727;52.134;5.052;2023-07-29T11:54:44;2.25;;;1.10;;
23115;SDS011;11727;52.134;5.052;2023-07-29T11:57:11;1.52;;;0.80;;
23115;SDS011;11727;52.134;5.052;2023-07-29T11:59:38;1.77;;;0.80;;
23115;SDS011;11727;52.134;5.052;2023-07-29T12:02:10;2.20;;;0.93;;
23115;SDS011;11727;52.134;5.052;2023-07-29T12:04:40;2.30;;;1.00;;
23115;SDS011;11727;52.134;5.052;2023-07-29T12:07:07;1.90;;;1.23;;
23115;SDS011;11727;52.134;5.052;2023-07-29T12:09:36;2.15;;;0.85;;
23115;SDS011;11727;52.134;5.052;2023-07-29T12:12:03;2.22;;;1.05;;
23115;SDS011;11727;52.134;5.052;2023-07-29T12:14:30;1.88;;;0.90;;
23115;SDS011;11727;52.134;5.052;2023-07-29T12:16:56;1.40;;;0.90;;
23115;SDS011;11727;52.134;5.052;2023-07-29T12:19:31;1.48;;;0.90;;
23115;SDS011;11727;52.134;5.052;2023-07-29T12:21:58;1.35;;;0.85;;
23115;SDS011;11727;52.134;5.052;2023-07-29T12:24:23;1.75;;;0.93;;
23115;SDS011;11727;52.134;5.052;2023-07-29T12:26:49;2.03;;;0.90;;
23115;SDS011;11727;52.134;5.052;2023-07-29T12:29:16;5.93;;;1.10;;
23115;SDS011;11727;52.134;5.052;2023-07-29T12:31:44;2.15;;;1.02;;
23115;SDS011;11727;52.134;5.052;2023-07-29T12:34:17;2.30;;;1.00;;
23115;SDS011;11727;52.134;5.052;2023-07-29T12:36:47;2.47;;;1.50;;
23115;SDS011;11727;52.134;5.052;2023-07-29T12:39:18;1.83;;;1.50;;
23115;SDS011;11727;52.134;5.052;2023-07-29T12:41:54;2.50;;;1.50;;
23115;SDS011;11727;52.134;5.052;2023-07-29T12:46:48;1.73;;;1.13;;
23115;SDS011;11727;52.134;5.052;2023-07-29T12:49:14;2.58;;;1.23;;
23115;SDS011;11727;52.134;5.052;2023-07-29T12:51:40;2.47;;;1.27;;
23115;SDS011;11727;52.134;5.052;2023-07-29T12:54:05;2.40;;;1.40;;
23115;SDS011;11727;52.134;5.052;2023-07-29T12:56:31;2.20;;;1.40;;
23115;SDS011;11727;52.134;5.052;2023-07-29T12:58:58;2.83;;;1.60;;
23115;SDS011;11727;52.134;5.052;2023-07-29T13:01:24;3.17;;;1.58;;
23115;SDS011;11727;52.134;5.052;2023-07-29T13:03:50;1.80;;;1.20;;
23115;SDS011;11727;52.134;5.052;2023-07-29T13:06:16;1.95;;;1.33;;
23115;SDS011;11727;52.134;5.052;2023-07-29T13:08:44;1.88;;;1.23;;
23115;SDS011;11727;52.134;5.052;2023-07-29T13:11:10;2.67;;;1.67;;
23115;SDS011;11727;52.134;5.052;2023-07-29T13:13:36;2.30;;;1.42;;
23115;SDS011;11727;52.134;5.052;2023-07-29T13:16:02;2.83;;;2.35;;
23115;SDS011;11727;52.134;5.052;2023-07-29T13:18:28;4.40;;;2.00;;
23115;SDS011;11727;52.134;5.052;2023-07-29T13:20:54;3.22;;;1.60;;
23115;SDS011;11727;52.134;5.052;2023-07-29T13:23:20;5.13;;;2.05;;
23115;SDS011;11727;52.134;5.052;2023-07-29T13:25:45;2.13;;;1.60;;
23115;SDS011;11727;52.134;5.052;2023-07-29T13:28:11;2.97;;;1.67;;
23115;SDS011;11727;52.134;5.052;2023-07-29T13:30:40;4.20;;;1.92;;
23115;SDS011;11727;52.134;5.052;2023-07-29T13:33:06;2.20;;;1.52;;
23115;SDS011;11727;52.134;5.052;2023-07-29T13:35:32;2.90;;;1.38;;
23115;SDS011;11727;52.134;5.052;2023-07-29T13:37:58;2.78;;;1.63;;
23115;SDS011;11727;52.134;5.052;2023-07-29T13:40:24;2.40;;;1.50;;
23115;SDS011;11727;52.134;5.052;2023-07-29T13:42:50;3.55;;;1.83;;
23115;SDS011;11727;52.134;5.052;2023-07-29T13:45:16;4.32;;;1.65;;
23115;SDS011;11727;52.134;5.052;2023-07-29T13:47:42;3.58;;;1.95;;
23115;SDS011;11727;52.134;5.052;2023-07-29T13:50:08;2.53;;;1.63;;
23115;SDS011;11727;52.134;5.052;2023-07-29T13:52:33;3.38;;;1.48;;
23115;SDS011;11727;52.134;5.052;2023-07-29T13:55:00;2.22;;;1.20;;
23115;SDS011;11727;52.134;5.052;2023-07-29T13:57:26;4.22;;;1.15;;
23115;SDS011;11727;52.134;5.052;2023-07-29T13:59:51;1.48;;;1.00;;
23115;SDS011;11727;52.134;5.052;2023-07-29T14:02:17;1.52;;;0.75;;
23115;SDS011;11727;52.134;5.052;2023-07-29T14:04:44;3.20;;;1.10;;
23115;SDS011;11727;52.134;5.052;2023-07-29T14:07:10;4.85;;;1.40;;
23115;SDS011;11727;52.134;5.052;2023-07-29T14:09:35;5.15;;;1.20;;
23115;SDS011;11727;52.134;5.052;2023-07-29T14:12:02;2.10;;;0.77;;
23115;SDS011;11727;52.134;5.052;2023-07-29T14:14:28;1.45;;;0.80;;
23115;SDS011;11727;52.134;5.052;2023-07-29T14:16:53;4.88;;;0.75;;
23115;SDS011;11727;52.134;5.052;2023-07-29T14:19:19;1.30;;;0.75;;
23115;SDS011;11727;52.134;5.052;2023-07-29T14:21:45;1.55;;;0.57;;
23115;SDS011;11727;52.134;5.052;2023-07-29T14:24:11;1.90;;;0.80;;
23115;SDS011;11727;52.134;5.052;2023-07-29T14:26:36;1.40;;;0.45;;
23115;SDS011;11727;52.134;5.052;2023-07-29T14:29:02;1.30;;;0.57;;
23115;SDS011;11727;52.134;5.052;2023-07-29T14:31:27;2.10;;;0.77;;
23115;SDS011;11727;52.134;5.052;2023-07-29T14:33:53;1.58;;;0.52;;
23115;SDS011;11727;52.134;5.052;2023-07-29T14:36:18;2.97;;;0.70;;
23115;SDS011;11727;52.134;5.052;2023-07-29T14:38:44;0.77;;;0.45;;
23115;SDS011;11727;52.134;5.052;2023-07-29T14:41:10;0.85;;;0.43;;
23115;SDS011;11727;52.134;5.052;2023-07-29T14:43:35;1.65;;;0.40;;
23115;SDS011;11727;52.134;5.052;2023-07-29T14:46:01;2.13;;;0.75;;
23115;SDS011;11727;52.134;5.052;2023-07-29T14:48:27;1.88;;;0.60;;
23115;SDS011;11727;52.134;5.052;2023-07-29T14:50:52;2.65;;;0.60;;
23115;SDS011;11727;52.134;5.052;2023-07-29T14:53:18;0.98;;;0.40;;
23115;SDS011;11727;52.134;5.052;2023-07-29T14:55:44;0.65;;;0.43;;
23115;SDS011;11727;52.134;5.052;2023-07-29T14:58:10;2.20;;;0.60;;
23115;SDS011;11727;52.134;5.052;2023-07-29T15:00:36;1.23;;;0.40;;
23115;SDS011;11727;52.134;5.052;2023-07-29T15:03:01;3.42;;;0.70;;
23115;SDS011;11727;52.134;5.052;2023-07-29T15:05:28;3.00;;;0.52;;
23115;SDS011;11727;52.134;5.052;2023-07-29T15:07:53;0.80;;;0.40;;
23115;SDS011;11727;52.134;5.052;2023-07-29T15:10:19;1.17;;;0.68;;
23115;SDS011;11727;52.134;5.052;2023-07-29T15:12:46;1.08;;;0.50;;
23115;SDS011;11727;52.134;5.052;2023-07-29T15:15:12;1.90;;;0.60;;